createdAt,value
2023-04-08T00:13:38.783Z,3.9
2023-04-08T00:15:45.818Z,4
2023-04-08T00:21:57.086Z,3.9
2023-04-08T00:24:00.837Z,3.8
2023-04-08T00:26:04.610Z,3.8
2023-04-08T00:28:08.356Z,3.7
2023-04-08T00:36:26.648Z,3.6
2023-04-08T00:48:52.644Z,3.3
2023-04-08T00:49:55.959Z,3.4
2023-04-08T00:54:03.477Z,3.3
2023-04-08T01:06:29.169Z,3
2023-04-08T01:12:43.662Z,2.9
2023-04-08T01:20:58.584Z,2.9
2023-04-08T01:27:13.044Z,2.7
2023-04-08T01:29:16.798Z,2.8
2023-04-08T01:31:20.562Z,2.8
2023-04-08T01:33:24.259Z,2.9
2023-04-08T01:35:28.038Z,2.8
2023-04-08T01:37:31.749Z,2.7
2023-04-08T01:39:35.706Z,2.7
2023-04-08T01:45:49.929Z,2.4
2023-04-08T01:46:53.492Z,2.5
2023-04-08T01:48:57.134Z,2.5
2023-04-08T02:01:22.849Z,2.5
2023-04-08T02:05:30.217Z,2.3
2023-04-08T02:07:33.946Z,2.3
2023-04-08T02:11:44.646Z,2.5
2023-04-08T02:13:48.352Z,2.4
2023-04-08T02:24:10.246Z,2.2
2023-04-08T02:26:13.963Z,2.2
2023-04-08T02:40:43.251Z,2.1
2023-04-08T02:42:46.985Z,2
2023-04-08T02:43:50.431Z,2
2023-04-08T02:47:57.885Z,1.9
2023-04-08T02:50:01.566Z,2
2023-04-08T02:52:08.538Z,2
2023-04-08T02:54:12.235Z,2.1
2023-04-08T02:56:15.960Z,2.1
2023-04-08T02:58:19.681Z,2.2
2023-04-08T03:00:23.351Z,2.1
2023-04-08T03:02:27.155Z,2.1
2023-04-08T03:04:30.763Z,2.1
2023-04-08T03:06:37.758Z,2
2023-04-08T03:08:41.447Z,2
2023-04-08T03:10:45.178Z,2.1
2023-04-08T03:12:48.881Z,2
2023-04-08T03:14:52.582Z,1.9
2023-04-08T03:16:56.363Z,2
2023-04-08T03:18:59.998Z,1.9
2023-04-08T03:21:06.953Z,1.9
2023-04-08T03:23:10.671Z,1.9
2023-04-08T03:25:14.393Z,1.8
2023-04-08T03:29:21.800Z,1.8
2023-04-08T03:31:25.542Z,1.7
2023-04-08T03:33:29.220Z,1.7
2023-04-08T03:35:36.239Z,1.7
2023-04-08T03:37:39.974Z,1.6
2023-04-08T03:39:43.651Z,1.6
2023-04-08T03:41:49.977Z,1.5
2023-04-08T03:43:53.674Z,1.6
2023-04-08T03:45:57.416Z,1.5
2023-04-08T03:48:03.898Z,1.5
2023-04-08T03:50:07.411Z,1.5
2023-04-08T03:52:11.120Z,1.4
2023-04-08T03:54:17.473Z,1.4
2023-04-08T03:56:21.175Z,1.3
2023-04-08T04:00:31.180Z,1.4
2023-04-08T04:02:35.048Z,1.3
2023-04-08T04:04:38.666Z,1.3
2023-04-08T04:19:12.419Z,1.1
2023-04-08T04:21:16.127Z,1.1
2023-04-08T04:23:19.798Z,1.1
2023-04-08T04:25:26.162Z,1.1
2023-04-08T04:29:33.526Z,1.1
2023-04-08T04:31:39.951Z,1.1
2023-04-08T04:33:43.559Z,1.1
2023-04-08T04:35:47.284Z,1
2023-04-08T04:37:53.595Z,1
2023-04-08T04:42:00.961Z,1.1
2023-04-08T04:46:11.059Z,0.9
2023-04-08T04:48:14.685Z,0.9
2023-04-08T04:50:21.005Z,0.8
2023-04-08T04:52:24.676Z,0.8
2023-04-08T04:54:28.355Z,0.9
2023-04-08T04:56:34.694Z,0.9
2023-04-08T04:58:38.369Z,0.9
2023-04-08T05:00:42.074Z,0.8
2023-04-08T05:02:48.608Z,0.9
2023-04-08T05:09:02.143Z,0.9
2023-04-08T05:13:09.431Z,0.9
2023-04-08T05:15:15.734Z,0.9
2023-04-08T05:17:19.467Z,0.9
2023-04-08T05:19:23.122Z,0.9
2023-04-08T05:26:36.250Z,1
2023-04-08T05:28:39.904Z,1
2023-04-08T05:30:46.245Z,1
2023-04-08T05:32:49.960Z,1.1
2023-04-08T05:34:53.591Z,1.1
2023-04-08T05:49:27.433Z,2.6
2023-04-08T05:51:30.932Z,3.3
2023-04-08T05:53:34.590Z,4.2
2023-04-08T05:55:40.924Z,4.7
2023-04-08T05:57:44.647Z,5
2023-04-08T05:59:48.300Z,5.5
2023-04-08T06:03:58.519Z,5.9
2023-04-08T06:06:02.018Z,6
2023-04-08T06:08:08.360Z,6.7
2023-04-08T06:10:12.045Z,6.7
2023-04-08T06:12:15.747Z,6.7
2023-04-08T06:14:22.482Z,6.7
2023-04-08T06:16:25.876Z,7.2
2023-04-08T06:18:29.544Z,7.6
2023-04-08T06:20:54.074Z,7.6
2023-04-08T06:22:57.821Z,7.6
2023-04-08T06:25:01.533Z,6.9
2023-04-08T06:27:08.550Z,5.7
2023-04-08T06:29:12.271Z,5.6
2023-04-08T06:31:16.020Z,5.2
2023-04-08T06:33:19.815Z,4.8
2023-04-08T06:35:23.488Z,4.5
2023-04-08T06:37:27.241Z,4.1
2023-04-08T06:39:30.964Z,3.7
2023-04-08T06:41:38.022Z,3.4
2023-04-08T06:45:45.491Z,3.4
2023-04-08T06:47:49.228Z,3.2
2023-04-08T06:49:52.998Z,3.2
2023-04-08T06:51:56.679Z,3.2
2023-04-08T06:54:00.420Z,3.2
2023-04-08T07:02:18.738Z,3.3
2023-04-08T07:04:22.438Z,3.4
2023-04-08T07:06:26.164Z,3.4
2023-04-08T07:12:40.700Z,3.4
2023-04-08T07:15:47.927Z,3.7
2023-04-08T07:17:51.776Z,3.9
2023-04-08T07:19:55.461Z,3.9
2023-04-08T07:21:59.180Z,4
2023-04-08T07:24:06.239Z,4.1
2023-04-08T07:26:09.981Z,4.1
2023-04-08T07:28:13.713Z,4.3
2023-04-08T07:30:17.491Z,4.5
2023-04-08T07:32:21.264Z,4.6
2023-04-08T07:34:25.366Z,4.7
2023-04-08T07:36:28.786Z,5
2023-04-08T07:38:35.775Z,5.9
2023-04-08T07:40:39.546Z,6.2
2023-04-08T07:46:50.833Z,6.1
2023-04-08T07:48:54.601Z,6.9
2023-04-08T07:51:09.430Z,8.5
2023-04-08T07:53:06.258Z,9.9
2023-04-08T07:59:16.763Z,12.1
2023-04-08T08:07:35.188Z,9.9
2023-04-08T08:11:42.767Z,11.8
2023-04-08T08:12:46.303Z,12.1
2023-04-08T08:14:50.154Z,12.5
2023-04-08T08:16:53.913Z,12.6
2023-04-08T08:18:57.695Z,12.4
2023-04-08T08:27:16.274Z,12.1
2023-04-08T08:29:20.045Z,12.8
2023-04-08T08:31:23.922Z,12.2
2023-04-08T08:33:27.709Z,11.5
2023-04-08T08:35:34.861Z,11.6
2023-04-08T08:39:42.465Z,11.2
2023-04-08T08:41:46.270Z,10.9
2023-04-08T08:43:50.296Z,10.6
2023-04-08T08:45:53.946Z,10.1
2023-04-08T08:50:04.892Z,10
2023-04-08T08:52:08.708Z,9.8
2023-04-08T08:54:12.544Z,9.8
2023-04-08T09:02:28.104Z,9.2
2023-04-08T09:04:35.176Z,9.4
2023-04-08T09:06:38.785Z,9.3
2023-04-08T09:08:42.603Z,9.1
2023-04-08T09:09:46.157Z,9
2023-04-08T09:11:50.002Z,9.3
2023-04-08T09:13:53.846Z,9.8
2023-04-08T09:15:57.700Z,10.2
2023-04-08T09:18:04.811Z,10.1
2023-04-08T09:22:12.426Z,10.1
2023-04-08T09:24:17.839Z,10.3
2023-04-08T09:26:20.130Z,10.3
2023-04-08T09:34:38.825Z,9.8
2023-04-08T09:36:42.818Z,10.3
2023-04-08T09:44:58.218Z,10.8
2023-04-08T09:47:05.342Z,11.2
2023-04-08T09:49:09.205Z,11.2
2023-04-08T09:51:13.023Z,11
2023-04-08T09:53:16.878Z,11.1
2023-04-08T09:55:20.717Z,11.6
2023-04-08T09:59:28.663Z,10.8
2023-04-08T10:01:35.705Z,11
2023-04-08T10:03:39.508Z,11.3
2023-04-08T10:08:01.740Z,11
2023-04-08T10:12:09.425Z,10.8
2023-04-08T10:16:20.411Z,11.2
2023-04-08T10:18:24.251Z,11.5
2023-04-08T10:22:31.960Z,11.9
2023-04-08T10:24:35.785Z,11.8
2023-04-08T10:26:39.665Z,11.7
2023-04-08T10:49:28.556Z,11.9
2023-04-08T10:51:33.864Z,12
2023-04-08T10:53:36.254Z,11.8
2023-04-08T10:55:40.104Z,11.9
2023-04-08T10:57:47.202Z,12.7
2023-04-08T10:59:51.032Z,12.7
2023-04-08T11:02:58.640Z,13.3
2023-04-08T11:05:02.275Z,13.4
2023-04-08T11:07:06.097Z,13.1
2023-04-08T11:09:09.971Z,13.2
2023-04-08T11:15:24.790Z,12.3
2023-04-08T11:17:28.666Z,12.3
2023-04-08T11:19:32.466Z,12.3
2023-04-08T11:21:36.333Z,12.1
2023-04-08T11:23:40.122Z,12
2023-04-08T11:25:47.225Z,12.1
2023-04-08T11:27:51.043Z,11.9
2023-04-08T11:29:54.931Z,11.9
2023-04-08T11:31:58.751Z,12.4
2023-04-08T11:34:02.592Z,12.5
2023-04-08T11:36:06.481Z,12.4
2023-04-08T11:38:10.264Z,12.1
2023-04-08T11:40:17.404Z,11.8
2023-04-08T11:42:21.242Z,11.7
2023-04-08T11:44:25.099Z,11.4
2023-04-08T11:46:28.975Z,11.7
2023-04-08T11:48:32.792Z,11.4
2023-04-08T11:50:36.627Z,11.6
2023-04-08T11:59:58.860Z,11.5
2023-04-08T12:02:02.747Z,11.4
2023-04-08T12:08:19.194Z,12.1
2023-04-08T12:10:22.969Z,12.3
2023-04-08T12:12:26.799Z,12.5
2023-04-08T12:14:30.673Z,12.8
2023-04-08T12:18:39.955Z,12.8
2023-04-08T12:22:49.303Z,12.4
2023-04-08T12:29:00.856Z,12.3
2023-04-08T12:39:23.313Z,12.4
2023-04-08T12:41:27.175Z,12.4
2023-04-08T12:43:31.019Z,12.7
2023-04-08T12:45:34.861Z,12.8
2023-04-08T12:47:38.753Z,12.9
2023-04-08T12:49:49.493Z,12.4
2023-04-08T12:51:49.672Z,12.5
2023-04-08T12:53:53.558Z,12.6
2023-04-08T12:55:57.410Z,12.7
2023-04-08T12:57:00.927Z,12.4
2023-04-08T12:59:04.774Z,12.5
2023-04-08T13:07:23.418Z,13
2023-04-08T13:09:27.247Z,13
2023-04-08T13:17:42.648Z,13.6
2023-04-08T13:19:49.795Z,13.9
2023-04-08T13:21:53.646Z,13.9
2023-04-08T13:23:57.467Z,14.1
2023-04-08T13:26:01.321Z,14.1
2023-04-08T13:28:05.181Z,13.7
2023-04-08T13:30:09.032Z,13.7
2023-04-08T13:32:12.880Z,14.2
2023-04-08T13:34:20.000Z,14.8
2023-04-08T13:36:23.867Z,14.7
2023-04-08T13:42:35.390Z,14.4
2023-04-08T13:44:39.209Z,14.5
2023-04-08T13:46:43.078Z,14.6
2023-04-08T13:55:22.947Z,13.6
2023-04-08T13:57:26.781Z,13.4
2023-04-08T13:59:30.764Z,13.2
2023-04-08T14:01:37.782Z,13.2
2023-04-08T14:03:41.573Z,13.2
2023-04-08T14:05:45.458Z,13.2
2023-04-08T14:07:49.288Z,13.1
2023-04-08T14:09:53.125Z,12.9
2023-04-08T14:11:56.998Z,13
2023-04-08T14:14:00.820Z,12.9
2023-04-08T14:16:07.944Z,13.4
2023-04-08T14:18:11.837Z,13.6
2023-04-08T14:20:15.669Z,13.9
2023-04-08T14:22:19.511Z,14.1
2023-04-08T14:24:23.357Z,14.3
2023-04-08T14:26:27.210Z,14.4
2023-04-08T14:28:31.033Z,14.6
2023-04-08T14:30:38.188Z,14.8
2023-04-08T14:32:42.028Z,14.6
2023-04-08T14:34:45.861Z,14.6
2023-04-08T14:36:49.699Z,14.1
2023-04-08T14:49:15.968Z,14.4
2023-04-08T14:50:19.522Z,14.5
2023-04-08T14:52:23.341Z,14.4
2023-04-08T14:54:27.160Z,14.2
2023-04-08T14:56:31.011Z,14.6
2023-04-08T14:58:38.174Z,14.6
2023-04-08T15:00:41.968Z,14.3
2023-04-08T15:02:45.884Z,14.3
2023-04-08T15:04:49.663Z,14.3
2023-04-08T15:06:53.497Z,14.2
2023-04-08T15:08:57.309Z,14.1
2023-04-08T15:11:01.150Z,14.2
2023-04-08T15:15:12.119Z,14
2023-04-08T15:19:19.818Z,13.8
2023-04-08T15:31:46.203Z,13.7
2023-04-08T15:33:50.270Z,13.4
2023-04-08T15:35:53.908Z,13.5
2023-04-08T15:40:01.599Z,13.5
2023-04-08T15:42:08.708Z,13.3
2023-04-08T15:44:12.542Z,13.3
2023-04-08T15:46:16.478Z,13.3
2023-04-08T15:47:19.992Z,13.3
2023-04-08T15:49:23.831Z,13.2
2023-04-08T16:05:57.840Z,13.5
2023-04-08T16:08:01.705Z,13.2
2023-04-08T16:10:08.792Z,13.1
2023-04-08T16:12:12.631Z,12.9
2023-04-08T16:14:16.464Z,13
2023-04-08T16:16:20.348Z,12.9
2023-04-08T16:18:24.181Z,12.9
2023-04-08T16:24:38.982Z,12.8
2023-04-08T16:26:42.831Z,12.8
2023-04-08T16:28:46.681Z,12.7
2023-04-08T16:30:50.513Z,12.5
2023-04-08T16:32:54.388Z,12.5
2023-04-08T16:37:02.810Z,12.3
2023-04-08T16:44:21.197Z,12.3
2023-04-08T16:46:25.025Z,12.3
2023-04-08T16:48:28.907Z,12.2
2023-04-08T16:52:39.873Z,12.2
2023-04-08T16:54:43.837Z,12.1
2023-04-08T16:56:47.574Z,12.1
2023-04-08T16:58:51.418Z,12
2023-04-08T17:05:02.984Z,11.7
2023-04-08T17:09:13.965Z,11.4
2023-04-08T17:11:17.818Z,11.3
2023-04-08T17:13:21.702Z,11.3
2023-04-08T17:15:25.529Z,11.3
2023-04-08T17:17:29.414Z,11.2
2023-04-08T17:19:33.261Z,11.2
2023-04-08T17:21:40.154Z,11.2
2023-04-08T17:23:43.998Z,11.2
2023-04-08T17:25:47.861Z,11.1
2023-04-08T17:27:51.734Z,11
2023-04-08T17:29:55.572Z,10.9
2023-04-08T17:31:59.450Z,10.9
2023-04-08T17:34:03.294Z,10.9
2023-04-08T17:36:10.406Z,10.8
2023-04-08T17:38:14.271Z,10.8
2023-04-08T17:40:18.100Z,10.8
2023-04-08T17:42:37.264Z,10.7
2023-04-08T17:44:41.093Z,10.7
2023-04-08T17:46:44.923Z,10.7
2023-04-08T17:48:52.088Z,10.7
2023-04-08T17:50:55.919Z,10.6
2023-04-08T17:52:59.767Z,10.6
2023-04-08T17:55:03.621Z,10.6
2023-04-08T17:57:07.477Z,10.6
2023-04-08T17:59:11.310Z,10.6
2023-04-08T18:01:19.410Z,10.5
2023-04-08T18:03:22.432Z,10.4
2023-04-08T18:05:27.802Z,10.4
2023-04-08T18:07:31.613Z,10.4
2023-04-08T18:09:35.501Z,10.4
2023-04-08T18:11:39.352Z,10.4
2023-04-08T18:13:43.168Z,10.3
2023-04-08T18:15:47.021Z,10.3
2023-04-08T18:17:54.212Z,10.2
2023-04-08T18:19:57.982Z,10.2
2023-04-08T18:22:01.903Z,10.2
2023-04-08T18:24:06.751Z,10.2
2023-04-08T18:26:09.531Z,10.1
2023-04-08T18:28:13.380Z,10.1
2023-04-08T18:30:17.236Z,10.1
2023-04-08T18:34:28.173Z,10
2023-04-08T18:37:35.607Z,9.9
2023-04-08T18:39:39.453Z,9.8
2023-04-08T18:41:43.301Z,9.8
2023-04-08T18:43:47.148Z,9.7
2023-04-08T18:47:58.143Z,9.7
2023-04-08T18:54:09.644Z,9.7
2023-04-08T18:56:13.493Z,9.7
2023-04-08T18:58:17.345Z,9.7
2023-04-08T19:00:24.465Z,9.7
2023-04-08T19:02:28.393Z,9.7
2023-04-08T19:04:32.187Z,9.7
2023-04-08T19:06:36.020Z,9.8
2023-04-08T19:08:39.899Z,9.7
2023-04-08T19:10:43.684Z,9.7
2023-04-08T19:12:47.535Z,9.7
2023-04-08T19:14:54.666Z,9.7
2023-04-08T19:16:58.488Z,9.7
2023-04-08T19:19:02.371Z,9.6
2023-04-08T19:21:06.184Z,9.7
2023-04-08T19:23:10.027Z,9.6
2023-04-08T19:25:13.881Z,9.6
2023-04-08T19:27:17.720Z,9.6
2023-04-08T19:29:24.821Z,9.6
2023-04-08T19:36:39.891Z,9.5
2023-04-08T19:38:43.748Z,9.5
2023-04-08T19:40:47.598Z,9.5
2023-04-08T19:42:54.680Z,9.5
2023-04-08T19:47:02.370Z,9.5
2023-04-08T19:49:06.195Z,9.5
2023-04-08T19:51:10.056Z,9.5
2023-04-08T19:53:13.890Z,9.5
2023-04-08T19:55:17.764Z,9.4
2023-04-08T19:57:24.854Z,9.4
2023-04-08T19:59:28.695Z,9.4
2023-04-08T20:01:32.597Z,9.4
2023-04-08T20:03:36.504Z,9.4
2023-04-08T20:05:40.278Z,9.3
2023-04-08T20:07:44.120Z,9.3
2023-04-08T20:13:58.837Z,9.2
2023-04-08T20:18:06.544Z,9.2
2023-04-08T20:20:10.395Z,9.2
2023-04-08T20:22:14.222Z,9.2
2023-04-08T20:24:18.140Z,9.2
2023-04-08T20:26:25.185Z,9.2
2023-04-08T20:28:29.015Z,9.1
2023-04-08T20:30:32.894Z,9.1
2023-04-08T20:31:36.431Z,9.1
2023-04-08T20:33:40.274Z,9.1
2023-04-08T20:39:55.074Z,9
2023-04-08T20:41:58.901Z,9
2023-04-08T20:44:02.764Z,8.9
2023-04-08T20:46:06.606Z,9
2023-04-08T20:50:14.270Z,8.9
2023-04-08T20:56:29.070Z,8.9
2023-04-08T20:58:32.944Z,8.9
2023-04-08T21:06:48.322Z,8.9
2023-04-08T21:08:55.428Z,8.9
2023-04-08T21:10:59.275Z,8.8
2023-04-08T21:13:03.117Z,8.9
2023-04-08T21:15:06.965Z,8.9
2023-04-08T21:17:10.793Z,8.9
2023-04-08T21:19:14.615Z,8.8
2023-04-08T21:21:18.468Z,8.8
2023-04-08T21:23:25.597Z,8.8
2023-04-08T21:27:33.259Z,8.8
2023-04-08T21:29:58.295Z,8.8
2023-04-08T21:32:02.233Z,8.8
2023-04-08T21:34:06.745Z,8.9
2023-04-08T21:36:13.912Z,8.9
2023-04-08T21:38:17.706Z,8.8
2023-04-08T21:40:21.601Z,8.8
2023-04-08T21:44:29.248Z,8.9
2023-04-08T21:46:33.052Z,8.9
2023-04-08T21:54:51.680Z,8.8
2023-04-08T21:58:59.348Z,8.9
2023-04-08T22:01:03.230Z,8.9
2023-04-08T22:03:07.178Z,8.8
2023-04-08T22:05:14.140Z,8.9
2023-04-08T22:09:21.854Z,8.9
2023-04-08T22:11:25.673Z,8.9
2023-04-08T22:13:29.496Z,8.9
2023-04-08T22:17:37.210Z,8.9
2023-04-08T22:21:48.132Z,8.9
2023-04-08T22:23:51.946Z,8.8
2023-04-08T22:24:55.524Z,8.9
2023-04-08T22:26:59.376Z,8.9
2023-04-08T22:29:03.192Z,8.8
2023-04-08T22:31:07.040Z,8.8
2023-04-08T22:35:17.990Z,8.8
2023-04-08T22:37:21.858Z,8.8
2023-04-08T22:41:29.532Z,8.8
2023-04-08T22:43:33.380Z,8.8
2023-04-08T22:45:37.218Z,8.8
2023-04-08T22:47:44.360Z,8.8
2023-04-08T22:51:52.009Z,8.8
2023-04-08T22:53:55.826Z,8.8
2023-04-08T22:55:59.689Z,8.8
2023-04-08T22:58:03.536Z,8.8
2023-04-08T23:00:07.369Z,8.8
2023-04-08T23:02:14.630Z,8.8
2023-04-08T23:06:22.173Z,8.7
2023-04-08T23:08:26.031Z,8.8
2023-04-08T23:10:29.816Z,8.7
2023-04-08T23:12:33.678Z,8.7
2023-04-08T23:14:37.520Z,8.7
2023-04-08T23:20:52.324Z,8.7
2023-04-08T23:21:55.897Z,8.7
2023-04-08T23:23:59.694Z,8.7
2023-04-08T23:26:03.564Z,8.7
2023-04-08T23:28:07.371Z,8.6
2023-04-08T23:30:14.483Z,8.6
2023-04-08T23:32:18.391Z,8.6
2023-04-08T23:34:22.175Z,8.6
2023-04-08T23:36:26.006Z,8.6
2023-04-08T23:40:33.704Z,8.7
2023-04-08T23:42:38.309Z,8.6
2023-04-08T23:44:44.652Z,8.7
2023-04-08T23:46:48.562Z,8.7
2023-04-08T23:50:56.168Z,8.7
2023-04-08T23:57:07.695Z,8.7
2023-04-08T23:59:14.776Z,8.7
